createdAt,value
2023-05-02T00:01:40.892Z,100635.84
2023-05-02T00:04:08.190Z,100637.97
2023-05-02T00:06:35.453Z,100640.34
2023-05-02T00:09:05.330Z,100636.75
2023-05-02T00:11:34.300Z,100631.59
2023-05-02T00:14:00.865Z,100630.25
2023-05-02T00:16:27.573Z,100632.66
2023-05-02T00:18:54.256Z,100635.94
2023-05-02T00:21:20.842Z,100640.06
2023-05-02T00:23:47.423Z,100639.53
2023-05-02T00:26:14.030Z,100644.09
2023-05-02T00:28:42.262Z,100638.97
2023-05-02T00:31:09.444Z,100638.78
2023-05-02T00:33:37.849Z,100644.75
2023-05-02T00:36:12.973Z,100649.00
2023-05-02T00:38:39.569Z,100649.63
2023-05-02T00:41:07.018Z,100655.56
2023-05-02T00:43:33.735Z,100648.47
2023-05-02T00:46:00.359Z,100643.53
2023-05-02T00:48:27.102Z,100649.38
2023-05-02T00:50:56.050Z,100650.25
2023-05-02T00:53:23.022Z,100653.53
2023-05-02T00:55:49.642Z,100648.41
2023-05-02T00:58:17.968Z,100653.97
2023-05-02T01:01:03.324Z,100650.91
2023-05-02T01:03:48.890Z,100649.28
2023-05-02T01:06:16.852Z,100650.13
2023-05-02T01:08:48.631Z,100646.69
2023-05-02T01:11:19.493Z,100654.53
2023-05-02T01:13:47.224Z,100643.28
2023-05-02T01:16:19.121Z,100643.28
2023-05-02T01:18:47.494Z,100648.22
2023-05-02T01:21:14.053Z,100649.59
2023-05-02T01:23:41.087Z,100653.75
2023-05-02T01:26:10.898Z,100649.94
2023-05-02T01:28:55.926Z,100661.50
2023-05-02T01:31:26.328Z,100655.25
2023-05-02T01:33:55.120Z,100656.47
2023-05-02T01:36:23.388Z,100648.38
2023-05-02T01:38:50.052Z,100650.56
2023-05-02T01:41:17.202Z,100655.38
2023-05-02T01:43:44.500Z,100657.19
2023-05-02T01:46:11.601Z,100650.41
2023-05-02T01:48:39.009Z,100659.91
2023-05-02T01:51:07.399Z,100660.31
2023-05-02T01:53:34.794Z,100661.09
2023-05-02T01:56:01.698Z,100662.66
2023-05-02T01:58:30.763Z,100663.25
2023-05-02T02:00:58.372Z,100666.47
2023-05-02T02:03:29.884Z,100668.44
2023-05-02T02:05:56.918Z,100678.03
2023-05-02T02:08:35.946Z,100672.91
2023-05-02T02:11:06.382Z,100673.91
2023-05-02T02:13:39.190Z,100674.31
2023-05-02T02:16:10.170Z,100681.13
2023-05-02T02:18:38.953Z,100681.50
2023-05-02T02:21:09.854Z,100686.72
2023-05-02T02:23:38.215Z,100687.22
2023-05-02T02:26:05.170Z,100691.38
2023-05-02T02:28:32.044Z,100698.41
2023-05-02T02:30:58.651Z,100685.66
2023-05-02T02:33:29.974Z,100699.53
2023-05-02T02:36:04.325Z,100698.13
2023-05-02T02:38:35.362Z,100704.44
2023-05-02T02:41:12.594Z,100703.28
2023-05-02T02:44:06.179Z,100706.88
2023-05-02T02:46:42.090Z,100712.72
2023-05-02T02:49:27.056Z,100717.34
2023-05-02T02:51:58.330Z,100722.50
2023-05-02T02:54:27.393Z,100718.91
2023-05-02T02:57:04.679Z,100723.84
2023-05-02T02:59:35.825Z,100721.59
2023-05-02T03:02:07.141Z,100726.22
2023-05-02T03:04:44.434Z,100726.34
2023-05-02T03:07:11.224Z,100725.34
2023-05-02T03:09:47.939Z,100740.09
2023-05-02T03:12:22.244Z,100736.28
2023-05-02T03:14:50.562Z,100739.19
2023-05-02T03:17:18.674Z,100734.81
2023-05-02T03:19:45.727Z,100737.81
2023-05-02T03:22:12.474Z,100750.94
2023-05-02T03:24:39.811Z,100747.94
2023-05-02T03:27:07.735Z,100745.19
2023-05-02T03:29:40.164Z,100752.69
2023-05-02T03:32:09.373Z,100753.34
2023-05-02T03:34:39.683Z,100758.13
2023-05-02T03:37:06.333Z,100765.41
2023-05-02T03:39:35.919Z,100766.59
2023-05-02T03:42:03.011Z,100770.13
2023-05-02T03:44:31.928Z,100767.38
2023-05-02T03:46:58.618Z,100757.34
2023-05-02T03:49:29.301Z,100763.44
2023-05-02T03:51:56.222Z,100765.34
2023-05-02T03:54:32.296Z,100770.72
2023-05-02T03:56:59.949Z,100778.19
2023-05-02T03:59:32.412Z,100773.41
2023-05-02T04:02:03.297Z,100778.34
2023-05-02T04:04:38.631Z,100772.44
2023-05-02T04:07:07.832Z,100778.06
2023-05-02T04:09:34.415Z,100787.06
2023-05-02T04:12:11.464Z,100796.03
2023-05-02T04:14:42.600Z,100797.53
2023-05-02T04:17:10.012Z,100798.16
2023-05-02T04:19:40.659Z,100803.69
2023-05-02T04:22:08.110Z,100818.13
2023-05-02T04:24:38.932Z,100813.91
2023-05-02T04:27:05.535Z,100821.69
2023-05-02T04:29:32.609Z,100821.44
2023-05-02T04:31:59.810Z,100826.75
2023-05-02T04:34:28.632Z,100828.81
2023-05-02T04:39:36.603Z,100836.53
2023-05-02T04:42:10.861Z,100838.56
2023-05-02T04:44:47.438Z,100842.56
2023-05-02T04:47:14.080Z,100854.31
2023-05-02T04:49:41.081Z,100844.94
2023-05-02T04:52:08.187Z,100843.88
2023-05-02T04:54:34.815Z,100842.50
2023-05-02T04:57:03.616Z,100861.94
2023-05-02T04:59:33.960Z,100861.34
2023-05-02T05:02:02.449Z,100865.16
2023-05-02T05:04:36.527Z,100872.44
2023-05-02T05:07:03.225Z,100876.25
2023-05-02T05:09:30.064Z,100878.94
2023-05-02T05:11:59.747Z,100884.53
2023-05-02T05:14:26.406Z,100888.88
2023-05-02T05:16:54.705Z,100889.00
2023-05-02T05:19:22.158Z,100886.59
2023-05-02T05:21:48.982Z,100893.50
2023-05-02T05:24:18.542Z,100899.63
2023-05-02T05:26:46.345Z,100904.22
2023-05-02T05:29:13.549Z,100899.75
2023-05-02T05:31:44.903Z,100905.56
2023-05-02T05:34:15.007Z,100918.84
2023-05-02T05:36:43.108Z,100909.69
2023-05-02T05:39:10.652Z,100916.91
2023-05-02T05:41:39.477Z,100920.84
2023-05-02T05:44:09.200Z,100920.34
2023-05-02T05:46:35.938Z,100921.28
2023-05-02T05:49:03.805Z,100923.91
2023-05-02T05:51:31.516Z,100943.81
2023-05-02T05:53:59.431Z,100938.34
2023-05-02T05:56:27.035Z,100947.53
2023-05-02T05:59:03.268Z,100942.75
2023-05-02T06:01:29.872Z,100956.59
2023-05-02T06:03:56.814Z,100950.31
2023-05-02T06:06:23.734Z,100966.97
2023-05-02T06:08:53.420Z,100971.28
2023-05-02T06:11:20.656Z,100967.56
2023-05-02T06:13:47.334Z,100973.44
2023-05-02T06:16:14.333Z,100988.84
2023-05-02T06:18:40.973Z,100987.16
2023-05-02T06:21:07.659Z,100985.31
2023-05-02T06:23:35.493Z,100997.06
2023-05-02T06:26:03.361Z,100991.66
2023-05-02T06:28:30.149Z,100997.34
2023-05-02T06:31:01.307Z,101007.63
2023-05-02T06:33:28.454Z,101014.09
2023-05-02T06:35:58.168Z,101013.09
2023-05-02T06:38:25.860Z,101011.25
2023-05-02T06:40:52.412Z,101017.88
2023-05-02T06:43:19.203Z,101014.66
2023-05-02T06:45:45.787Z,101027.91
2023-05-02T06:48:12.434Z,101035.41
2023-05-02T06:50:39.164Z,101046.91
2023-05-02T06:53:08.533Z,101051.78
2023-05-02T06:55:35.077Z,101052.59
2023-05-02T06:58:04.524Z,101058.16
2023-05-02T07:00:31.219Z,101061.66
2023-05-02T07:02:58.049Z,101073.97
2023-05-02T07:05:24.612Z,101065.91
2023-05-02T07:07:51.175Z,101080.09
2023-05-02T07:10:17.737Z,101083.91
2023-05-02T07:12:44.361Z,101085.53
2023-05-02T07:15:11.460Z,101086.38
2023-05-02T07:17:40.396Z,101091.06
2023-05-02T07:20:07.747Z,101094.56
2023-05-02T07:22:41.734Z,101102.44
2023-05-02T07:25:08.586Z,101110.44
2023-05-02T07:30:15.767Z,101114.97
2023-05-02T07:32:42.335Z,101124.59
2023-05-02T07:35:09.597Z,101122.22
2023-05-02T07:37:36.981Z,101133.25
2023-05-02T07:40:07.422Z,101133.09
2023-05-02T07:42:34.010Z,101141.03
2023-05-02T07:45:00.760Z,101145.63
2023-05-02T07:47:27.572Z,101151.81
2023-05-02T07:49:54.534Z,101149.19
2023-05-02T07:52:23.562Z,101166.00
2023-05-02T07:54:50.468Z,101165.00
2023-05-02T07:57:17.319Z,101170.81
2023-05-02T07:59:43.891Z,101170.00
2023-05-02T08:02:11.335Z,101178.22
2023-05-02T08:04:45.470Z,101179.53
2023-05-02T08:07:15.552Z,101185.22
2023-05-02T08:09:42.358Z,101189.81
2023-05-02T08:12:11.243Z,101193.16
2023-05-02T08:14:38.106Z,101198.53
2023-05-02T08:17:04.632Z,101203.50
2023-05-02T08:19:33.306Z,101201.16
2023-05-02T08:22:02.969Z,101212.75
2023-05-02T08:24:31.000Z,101216.50
2023-05-02T08:26:57.608Z,101216.31
2023-05-02T08:29:24.427Z,101215.78
2023-05-02T08:31:53.138Z,101217.00
2023-05-02T08:34:19.841Z,101220.22
2023-05-02T08:36:47.274Z,101228.41
2023-05-02T08:39:13.949Z,101222.66
2023-05-02T08:41:40.761Z,101223.44
2023-05-02T08:44:08.867Z,101223.25
2023-05-02T08:46:36.336Z,101218.25
2023-05-02T08:49:03.269Z,101226.34
2023-05-02T08:51:32.766Z,101228.03
2023-05-02T08:53:59.927Z,101235.47
2023-05-02T08:56:26.784Z,101242.41
2023-05-02T08:58:53.466Z,101242.63
2023-05-02T09:01:22.734Z,101248.13
2023-05-02T09:03:49.956Z,101266.81
2023-05-02T09:06:20.735Z,101272.84
2023-05-02T09:08:54.835Z,101273.91
2023-05-02T09:11:24.546Z,101269.91
2023-05-02T09:13:54.540Z,101275.16
2023-05-02T09:16:25.558Z,101280.72
2023-05-02T09:18:56.511Z,101283.75
2023-05-02T09:21:29.176Z,101296.34
2023-05-02T09:23:56.934Z,101292.75
2023-05-02T09:26:36.761Z,101296.44
2023-05-02T09:29:04.711Z,101295.22
2023-05-02T09:34:08.849Z,101296.75
2023-05-02T09:36:40.002Z,101303.91
2023-05-02T09:39:11.902Z,101311.44
2023-05-02T09:41:46.635Z,101308.72
2023-05-02T09:44:14.402Z,101312.63
2023-05-02T09:46:46.006Z,101312.22
2023-05-02T09:49:12.664Z,101322.44
2023-05-02T09:51:39.333Z,101317.44
2023-05-02T09:54:05.937Z,101328.66
2023-05-02T09:56:51.711Z,101333.75
2023-05-02T09:59:18.365Z,101343.34
2023-05-02T10:01:45.100Z,101342.66
2023-05-02T10:04:19.541Z,101342.75
2023-05-02T10:06:51.005Z,101353.34
2023-05-02T10:09:22.028Z,101355.19
2023-05-02T10:11:56.038Z,101356.34
2023-05-02T10:14:23.529Z,101357.94
2023-05-02T10:16:59.860Z,101361.78
2023-05-02T10:19:47.958Z,101366.53
2023-05-02T10:22:15.675Z,101368.97
2023-05-02T10:24:42.570Z,101364.28
2023-05-02T10:27:09.289Z,101366.06
2023-05-02T10:29:36.169Z,101373.56
2023-05-02T10:32:04.585Z,101378.88
2023-05-02T10:34:32.394Z,101377.81
2023-05-02T10:37:01.538Z,101385.72
2023-05-02T10:39:28.618Z,101389.06
2023-05-02T10:41:56.594Z,101384.31
2023-05-02T10:44:39.804Z,101389.22
2023-05-02T10:47:27.125Z,101392.75
2023-05-02T10:49:55.466Z,101384.50
2023-05-02T10:52:25.746Z,101388.84
2023-05-02T10:54:52.516Z,101393.13
2023-05-02T10:57:19.158Z,101385.00
2023-05-02T10:59:46.541Z,101391.66
2023-05-02T11:02:25.509Z,101399.63
2023-05-02T11:05:06.067Z,101396.22
2023-05-02T11:07:33.542Z,101387.88
2023-05-02T11:10:15.369Z,101384.75
2023-05-02T11:12:49.255Z,101388.19
2023-05-02T11:15:38.600Z,101390.38
2023-05-02T11:18:09.387Z,101381.53
2023-05-02T11:20:37.033Z,101391.00
2023-05-02T11:23:16.264Z,101379.84
2023-05-02T11:25:43.766Z,101378.75
2023-05-02T11:28:29.078Z,101389.66
2023-05-02T11:30:56.756Z,101392.53
2023-05-02T11:33:24.538Z,101383.34
2023-05-02T11:35:51.360Z,101388.22
2023-05-02T11:38:19.604Z,101396.84
2023-05-02T11:40:52.444Z,101385.97
2023-05-02T11:43:19.702Z,101397.81
2023-05-02T11:45:46.387Z,101404.72
2023-05-02T11:48:13.791Z,101400.38
2023-05-02T11:50:50.459Z,101406.06
2023-05-02T11:53:23.280Z,101413.22
2023-05-02T11:55:53.992Z,101406.47
2023-05-02T11:58:24.272Z,101414.06
2023-05-02T12:00:52.532Z,101409.03
2023-05-02T12:03:39.389Z,101414.31
2023-05-02T12:06:18.941Z,101413.53
2023-05-02T12:08:49.068Z,101410.50
2023-05-02T12:11:16.714Z,101420.28
2023-05-02T12:13:50.502Z,101410.63
2023-05-02T12:16:18.444Z,101421.00
2023-05-02T12:18:48.499Z,101419.13
2023-05-02T12:21:15.557Z,101425.25
2023-05-02T12:23:42.546Z,101425.97
2023-05-02T12:26:21.935Z,101430.00
2023-05-02T12:28:50.533Z,101429.94
2023-05-02T12:31:17.274Z,101432.00
2023-05-02T12:33:44.751Z,101445.25
2023-05-02T12:36:11.867Z,101431.19
2023-05-02T12:38:41.091Z,101427.47
2023-05-02T12:41:08.090Z,101428.69
2023-05-02T12:43:49.575Z,101425.59
2023-05-02T12:46:16.620Z,101425.59
2023-05-02T12:48:44.858Z,101430.97
2023-05-02T12:51:22.536Z,101429.28
2023-05-02T12:53:49.214Z,101439.63
2023-05-02T12:56:23.996Z,101430.69
2023-05-02T12:58:51.442Z,101428.88
2023-05-02T13:01:18.083Z,101432.94
2023-05-02T13:03:44.859Z,101430.38
2023-05-02T13:06:13.787Z,101427.66
2023-05-02T13:08:40.486Z,101436.91
2023-05-02T13:11:09.385Z,101430.72
2023-05-02T13:13:38.144Z,101436.66
2023-05-02T13:16:05.170Z,101442.19
2023-05-02T13:18:32.107Z,101436.97
2023-05-02T13:20:58.745Z,101444.19
2023-05-02T13:23:25.443Z,101446.03
2023-05-02T13:25:52.113Z,101440.03
2023-05-02T13:28:18.949Z,101440.28
2023-05-02T13:30:45.555Z,101445.78
2023-05-02T13:33:12.246Z,101445.47
2023-05-02T13:35:38.810Z,101449.16
2023-05-02T13:38:05.420Z,101446.69
2023-05-02T13:40:32.024Z,101456.03
2023-05-02T13:42:58.740Z,101459.78
2023-05-02T13:45:25.388Z,101459.84
2023-05-02T13:47:54.872Z,101457.84
2023-05-02T13:50:21.538Z,101451.75
2023-05-02T13:52:51.303Z,101455.94
2023-05-02T13:55:18.066Z,101437.84
2023-05-02T13:57:44.973Z,101440.50
2023-05-02T14:00:12.082Z,101453.06
2023-05-02T14:02:41.739Z,101453.56
2023-05-02T14:05:08.797Z,101439.44
2023-05-02T14:07:35.370Z,101458.41
2023-05-02T14:10:02.109Z,101456.28
2023-05-02T14:12:29.063Z,101456.97
2023-05-02T14:14:55.740Z,101467.78
2023-05-02T14:17:25.625Z,101461.94
2023-05-02T14:19:52.650Z,101458.44
2023-05-02T14:22:22.091Z,101455.06
2023-05-02T14:24:49.023Z,101455.13
2023-05-02T14:27:18.402Z,101456.69
2023-05-02T14:29:45.655Z,101476.34
2023-05-02T14:32:12.313Z,101469.56
2023-05-02T14:34:39.150Z,101476.75
2023-05-02T14:37:06.033Z,101480.06
2023-05-02T14:39:32.632Z,101474.63
2023-05-02T14:41:59.312Z,101483.69
2023-05-02T14:44:25.941Z,101488.69
2023-05-02T14:46:54.354Z,101487.75
2023-05-02T14:49:21.139Z,101484.47
2023-05-02T14:51:48.834Z,101497.59
2023-05-02T14:54:16.888Z,101488.44
2023-05-02T14:56:46.581Z,101497.81
2023-05-02T14:59:13.853Z,101500.38
2023-05-02T15:01:44.431Z,101499.81
2023-05-02T15:04:14.305Z,101503.84
2023-05-02T15:06:44.121Z,101505.88
2023-05-02T15:09:12.093Z,101501.75
2023-05-02T15:11:38.634Z,101503.22
2023-05-02T15:14:05.500Z,101506.97
2023-05-02T15:16:32.204Z,101510.94
2023-05-02T15:19:04.207Z,101508.13
2023-05-02T15:21:33.039Z,101517.28
2023-05-02T15:23:59.954Z,101511.31
2023-05-02T15:26:29.835Z,101509.25
2023-05-02T15:29:01.806Z,101515.06
2023-05-02T15:31:28.618Z,101516.75
2023-05-02T15:33:58.299Z,101517.31
2023-05-02T15:36:31.139Z,101521.50
2023-05-02T15:39:00.035Z,101533.06
2023-05-02T15:41:27.552Z,101535.16
2023-05-02T15:43:54.152Z,101525.31
2023-05-02T15:46:20.904Z,101531.38
2023-05-02T15:48:48.034Z,101532.25
2023-05-02T15:51:16.936Z,101546.72
2023-05-02T15:53:44.975Z,101548.78
2023-05-02T15:56:11.909Z,101545.50
2023-05-02T15:58:38.881Z,101540.50
2023-05-02T16:01:08.268Z,101552.44
2023-05-02T16:03:40.347Z,101561.94
2023-05-02T16:06:07.747Z,101565.41
2023-05-02T16:08:34.578Z,101557.25
2023-05-02T16:11:02.739Z,101569.97
2023-05-02T16:13:32.222Z,101572.16
2023-05-02T16:15:58.942Z,101577.44
2023-05-02T16:18:28.601Z,101573.97
2023-05-02T16:20:58.401Z,101592.19
2023-05-02T16:23:31.114Z,101584.56
2023-05-02T16:26:01.752Z,101594.84
2023-05-02T16:28:30.324Z,101579.25
2023-05-02T16:30:57.084Z,101589.63
2023-05-02T16:33:23.701Z,101597.72
2023-05-02T16:35:59.639Z,101592.16
2023-05-02T16:38:26.773Z,101595.03
2023-05-02T16:40:53.345Z,101594.88
2023-05-02T16:43:20.244Z,101605.19
2023-05-02T16:45:47.203Z,101603.91
2023-05-02T16:48:14.715Z,101598.78
2023-05-02T16:50:43.565Z,101606.00
2023-05-02T16:53:10.174Z,101606.06
2023-05-02T16:55:36.836Z,101615.88
2023-05-02T16:58:03.393Z,101615.31
2023-05-02T17:00:30.703Z,101619.94
2023-05-02T17:02:57.299Z,101618.16
2023-05-02T17:05:23.964Z,101622.91
2023-05-02T17:07:51.238Z,101616.09
2023-05-02T17:10:19.108Z,101623.75
2023-05-02T17:12:46.809Z,101631.63
2023-05-02T17:15:19.180Z,101640.16
2023-05-02T17:17:45.826Z,101633.44
2023-05-02T17:20:13.322Z,101643.50
2023-05-02T17:22:41.548Z,101635.56
2023-05-02T17:25:09.083Z,101642.53
2023-05-02T17:27:36.369Z,101642.06
2023-05-02T17:30:04.273Z,101635.78
2023-05-02T17:32:33.390Z,101636.66
2023-05-02T17:35:00.005Z,101640.50
2023-05-02T17:37:26.574Z,101638.50
2023-05-02T17:39:53.119Z,101646.94
2023-05-02T17:42:19.791Z,101643.59
2023-05-02T17:44:48.423Z,101649.41
2023-05-02T17:47:19.784Z,101654.03
2023-05-02T17:49:55.838Z,101655.06
2023-05-02T17:52:22.497Z,101649.94
2023-05-02T17:54:51.399Z,101661.97
2023-05-02T17:57:18.097Z,101656.72
2023-05-02T17:59:45.695Z,101658.53
2023-05-02T18:02:12.338Z,101670.22
2023-05-02T18:04:38.989Z,101675.69
2023-05-02T18:07:06.290Z,101677.94
2023-05-02T18:09:32.957Z,101672.63
2023-05-02T18:12:00.597Z,101682.13
2023-05-02T18:14:27.184Z,101691.00
2023-05-02T18:16:53.791Z,101691.47
2023-05-02T18:19:20.436Z,101691.22
2023-05-02T18:21:47.044Z,101696.47
2023-05-02T18:24:13.636Z,101690.03
2023-05-02T18:26:40.383Z,101700.19
2023-05-02T18:29:06.999Z,101694.56
2023-05-02T18:31:34.898Z,101697.63
2023-05-02T18:34:01.544Z,101699.13
2023-05-02T18:36:31.622Z,101694.50
2023-05-02T18:39:04.381Z,101694.72
2023-05-02T18:41:33.306Z,101699.72
2023-05-02T18:44:00.738Z,101703.56
2023-05-02T18:46:27.773Z,101696.81
2023-05-02T18:48:54.351Z,101707.16
2023-05-02T18:51:21.727Z,101702.84
2023-05-02T18:53:49.175Z,101710.38
2023-05-02T18:56:15.916Z,101708.06
2023-05-02T18:58:42.999Z,101703.84
2023-05-02T19:01:14.903Z,101716.84
2023-05-02T19:03:44.800Z,101707.38
2023-05-02T19:06:14.322Z,101720.38
2023-05-02T19:08:41.020Z,101713.66
2023-05-02T19:11:07.676Z,101723.81
2023-05-02T19:13:34.313Z,101719.19
2023-05-02T19:16:01.178Z,101723.88
2023-05-02T19:18:27.991Z,101731.19
2023-05-02T19:20:54.609Z,101733.44
2023-05-02T19:23:21.209Z,101731.28
2023-05-02T19:25:47.860Z,101735.19
2023-05-02T19:28:16.825Z,101738.19
2023-05-02T19:30:44.275Z,101746.19
2023-05-02T19:33:11.342Z,101756.53
2023-05-02T19:35:38.037Z,101748.59
2023-05-02T19:38:04.644Z,101752.72
2023-05-02T19:40:31.322Z,101759.06
2023-05-02T19:42:57.896Z,101756.31
2023-05-02T19:45:24.501Z,101763.72
2023-05-02T19:47:51.163Z,101758.00
2023-05-02T19:50:17.811Z,101764.75
2023-05-02T19:52:50.730Z,101765.69
2023-05-02T19:55:18.581Z,101761.97
2023-05-02T19:57:51.104Z,101767.91
2023-05-02T20:00:19.946Z,101768.66
2023-05-02T20:02:48.683Z,101775.91
2023-05-02T20:05:16.651Z,101770.78
2023-05-02T20:07:44.593Z,101775.03
2023-05-02T20:10:11.295Z,101782.72
2023-05-02T20:12:38.030Z,101775.38
2023-05-02T20:15:05.367Z,101784.41
2023-05-02T20:17:32.016Z,101781.75
2023-05-02T20:20:01.139Z,101788.72
2023-05-02T20:22:27.834Z,101793.03
2023-05-02T20:24:54.467Z,101796.69
2023-05-02T20:27:20.980Z,101790.94
2023-05-02T20:29:47.594Z,101794.31
2023-05-02T20:32:14.242Z,101790.47
2023-05-02T20:34:42.977Z,101792.03
2023-05-02T20:37:11.726Z,101790.47
2023-05-02T20:39:38.322Z,101802.75
2023-05-02T20:42:05.611Z,101797.19
2023-05-02T20:44:39.177Z,101806.34
2023-05-02T20:47:05.822Z,101804.22
2023-05-02T20:49:33.210Z,101804.59
2023-05-02T20:52:06.333Z,101804.75
2023-05-02T20:54:32.946Z,101806.53
2023-05-02T20:57:01.972Z,101802.88
2023-05-02T20:59:28.582Z,101803.56
2023-05-02T21:01:57.780Z,101810.03
2023-05-02T21:04:26.729Z,101813.91
2023-05-02T21:06:54.997Z,101819.63
2023-05-02T21:09:21.564Z,101816.09
2023-05-02T21:11:48.187Z,101809.47
2023-05-02T21:14:15.748Z,101813.25
2023-05-02T21:16:45.244Z,101819.81
2023-05-02T21:19:11.802Z,101828.75
2023-05-02T21:21:38.433Z,101827.16
2023-05-02T21:24:07.728Z,101834.19
2023-05-02T21:26:34.518Z,101829.19
2023-05-02T21:29:01.288Z,101830.19
2023-05-02T21:31:27.846Z,101826.03
2023-05-02T21:33:54.489Z,101835.91
2023-05-02T21:36:21.109Z,101839.38
2023-05-02T21:38:47.689Z,101835.25
2023-05-02T21:41:14.232Z,101841.22
2023-05-02T21:43:43.130Z,101847.47
2023-05-02T21:46:12.884Z,101854.50
2023-05-02T21:48:39.659Z,101852.31
2023-05-02T21:51:15.622Z,101853.94
2023-05-02T21:53:42.622Z,101847.78
2023-05-02T21:56:09.788Z,101861.16
2023-05-02T21:58:36.393Z,101857.78
2023-05-02T22:01:05.986Z,101862.31
2023-05-02T22:03:34.632Z,101860.50
2023-05-02T22:06:07.909Z,101864.72
2023-05-02T22:08:34.710Z,101864.72
2023-05-02T22:11:06.930Z,101862.81
2023-05-02T22:13:36.991Z,101866.75
2023-05-02T22:16:03.762Z,101867.59
2023-05-02T22:18:30.408Z,101863.28
2023-05-02T22:20:58.686Z,101866.56
2023-05-02T22:23:25.402Z,101877.13
2023-05-02T22:25:52.064Z,101874.66
2023-05-02T22:28:18.663Z,101874.81
2023-05-02T22:30:45.444Z,101884.38
2023-05-02T22:33:12.854Z,101875.50
2023-05-02T22:35:39.737Z,101878.94
2023-05-02T22:38:11.031Z,101882.38
2023-05-02T22:40:37.637Z,101878.09
2023-05-02T22:43:04.327Z,101877.44
2023-05-02T22:45:35.190Z,101872.09
2023-05-02T22:48:01.946Z,101873.88
2023-05-02T22:50:31.350Z,101872.16
2023-05-02T22:52:59.658Z,101871.34
2023-05-02T22:55:26.261Z,101884.50
2023-05-02T22:57:52.902Z,101878.97
2023-05-02T23:00:19.892Z,101873.91
2023-05-02T23:02:46.582Z,101879.09
2023-05-02T23:05:14.274Z,101874.00
2023-05-02T23:07:40.968Z,101880.22
2023-05-02T23:10:07.954Z,101882.72
2023-05-02T23:12:34.614Z,101874.78
2023-05-02T23:15:03.455Z,101875.75
2023-05-02T23:17:30.211Z,101879.25
2023-05-02T23:19:57.101Z,101880.09
2023-05-02T23:22:23.701Z,101881.00
2023-05-02T23:24:50.329Z,101882.78
2023-05-02T23:27:16.941Z,101885.47
2023-05-02T23:29:43.483Z,101876.75
2023-05-02T23:32:10.185Z,101881.88
2023-05-02T23:34:37.190Z,101891.53
2023-05-02T23:37:08.680Z,101893.25
2023-05-02T23:39:35.339Z,101888.06
2023-05-02T23:42:03.855Z,101888.97
2023-05-02T23:44:31.277Z,101886.44
2023-05-02T23:47:04.030Z,101888.16
2023-05-02T23:49:30.797Z,101893.41
2023-05-02T23:51:57.369Z,101893.41
2023-05-02T23:54:24.030Z,101897.81
2023-05-02T23:56:50.719Z,101889.94
2023-05-02T23:59:20.054Z,101893.44
